createdAt,value
2023-05-19T00:00:21.442Z,4.78
2023-05-19T00:03:53.954Z,3.35
2023-05-19T00:07:01.483Z,3.20
2023-05-19T00:10:08.742Z,2.55
2023-05-19T00:13:12.698Z,3.85
2023-05-19T00:16:17.281Z,3.47
2023-05-19T00:19:22.144Z,3.28
2023-05-19T00:22:26.416Z,2.83
2023-05-19T00:25:31.654Z,3.45
2023-05-19T00:28:35.747Z,4.85
2023-05-19T00:31:39.435Z,4.97
2023-05-19T00:34:43.388Z,5.03
2023-05-19T00:37:47.099Z,3.87
2023-05-19T00:40:52.341Z,7.03
2023-05-19T00:43:56.542Z,3.47
2023-05-19T00:47:00.497Z,2.63
2023-05-19T00:50:04.629Z,2.33
2023-05-19T00:53:09.086Z,3.08
2023-05-19T00:56:14.437Z,3.17
2023-05-19T00:59:18.565Z,3.60
2023-05-19T01:02:22.776Z,3.90
2023-05-19T01:05:27.741Z,2.45
2023-05-19T01:08:32.747Z,3.50
2023-05-19T01:11:39.374Z,3.03
2023-05-19T01:14:44.030Z,3.25
2023-05-19T01:18:01.966Z,3.43
2023-05-19T01:21:37.968Z,3.42
2023-05-19T01:25:46.896Z,4.38
2023-05-19T01:29:29.576Z,4.50
2023-05-19T01:32:37.243Z,3.72
2023-05-19T01:35:44.122Z,3.40
2023-05-19T01:38:52.533Z,3.63
2023-05-19T01:41:59.060Z,3.53
2023-05-19T01:45:06.750Z,2.55
2023-05-19T01:48:13.056Z,2.75
2023-05-19T01:51:16.964Z,2.10
2023-05-19T01:54:20.959Z,2.40
2023-05-19T01:57:40.422Z,2.58
2023-05-19T02:00:55.086Z,2.72
2023-05-19T02:04:21.537Z,2.88
2023-05-19T02:07:42.642Z,3.35
2023-05-19T02:10:59.001Z,2.40
2023-05-19T02:14:11.736Z,2.90
2023-05-19T02:17:19.033Z,3.38
2023-05-19T02:20:24.820Z,3.47
2023-05-19T02:23:28.426Z,3.40
2023-05-19T02:26:34.739Z,4.57
2023-05-19T02:29:41.381Z,2.72
2023-05-19T02:32:46.896Z,3.50
2023-05-19T02:35:52.301Z,4.78
2023-05-19T02:38:56.263Z,3.67
2023-05-19T02:42:00.219Z,3.97
2023-05-19T02:45:04.373Z,3.77
2023-05-19T02:48:08.165Z,2.80
2023-05-19T02:51:13.813Z,4.05
2023-05-19T02:54:17.510Z,3.93
2023-05-19T02:57:22.190Z,2.17
2023-05-19T03:00:26.124Z,1.98
2023-05-19T03:03:30.462Z,3.22
2023-05-19T03:06:36.465Z,2.20
2023-05-19T03:09:41.334Z,2.78
2023-05-19T03:12:44.943Z,4.97
2023-05-19T03:15:51.175Z,3.30
2023-05-19T03:18:55.627Z,4.53
2023-05-19T03:22:00.889Z,3.75
2023-05-19T03:25:04.851Z,3.43
2023-05-19T03:28:10.275Z,2.97
2023-05-19T03:31:14.852Z,2.92
2023-05-19T03:34:18.942Z,2.40
2023-05-19T03:37:24.518Z,9.02
2023-05-19T03:40:28.920Z,2.97
2023-05-19T03:43:39.340Z,3.58
2023-05-19T03:46:44.973Z,2.10
2023-05-19T03:49:57.772Z,3.65
2023-05-19T03:53:26.302Z,3.10
2023-05-19T03:56:31.000Z,3.13
2023-05-19T03:59:35.494Z,3.65
2023-05-19T04:02:41.387Z,3.60
2023-05-19T04:05:46.060Z,3.67
2023-05-19T04:08:51.754Z,4.85
2023-05-19T04:11:55.886Z,4.50
2023-05-19T04:15:01.665Z,3.25
2023-05-19T04:18:05.698Z,3.63
2023-05-19T04:21:09.829Z,2.97
2023-05-19T04:24:16.647Z,3.38
2023-05-19T04:27:21.978Z,3.43
2023-05-19T04:30:26.446Z,4.45
2023-05-19T04:33:30.242Z,3.90
2023-05-19T04:36:35.097Z,3.17
2023-05-19T04:39:43.153Z,5.35
2023-05-19T04:42:49.848Z,5.40
2023-05-19T04:45:53.485Z,3.22
2023-05-19T04:49:01.319Z,3.97
2023-05-19T04:52:10.969Z,3.20
2023-05-19T04:55:17.239Z,4.18
2023-05-19T04:58:21.754Z,4.77
2023-05-19T05:01:26.644Z,3.20
2023-05-19T05:04:31.822Z,5.72
2023-05-19T05:07:35.933Z,3.67
2023-05-19T05:10:41.323Z,5.13
2023-05-19T05:13:45.893Z,3.08
2023-05-19T05:16:51.974Z,3.05
2023-05-19T05:20:00.938Z,4.33
2023-05-19T05:23:06.067Z,4.30
2023-05-19T05:26:21.441Z,3.90
2023-05-19T05:29:26.795Z,4.90
2023-05-19T05:32:31.262Z,4.93
2023-05-19T05:35:37.045Z,6.45
2023-05-19T05:38:42.585Z,4.55
2023-05-19T05:41:48.270Z,3.45
2023-05-19T05:44:52.102Z,4.57
2023-05-19T05:47:56.674Z,3.58
2023-05-19T05:51:01.078Z,5.33
2023-05-19T05:54:12.817Z,3.40
2023-05-19T05:57:24.069Z,4.60
2023-05-19T06:00:28.357Z,3.90
2023-05-19T06:03:33.559Z,14.82
2023-05-19T06:06:41.690Z,9.07
2023-05-19T06:09:46.317Z,4.40
2023-05-19T06:12:51.484Z,3.45
2023-05-19T06:15:55.758Z,3.70
2023-05-19T06:19:08.156Z,9.80
2023-05-19T06:22:12.218Z,5.30
2023-05-19T06:25:16.073Z,4.40
2023-05-19T06:28:21.671Z,11.68
2023-05-19T06:31:28.196Z,8.80
2023-05-19T06:34:35.263Z,2.72
2023-05-19T06:37:38.828Z,3.33
2023-05-19T06:40:42.943Z,6.18
2023-05-19T06:43:48.321Z,4.95
2023-05-19T06:46:52.226Z,4.78
2023-05-19T06:49:57.031Z,3.78
2023-05-19T06:53:04.106Z,4.53
2023-05-19T06:56:08.655Z,3.30
2023-05-19T06:59:16.700Z,6.20
2023-05-19T07:02:21.729Z,12.20
2023-05-19T07:05:25.784Z,6.30
2023-05-19T07:08:33.346Z,5.20
2023-05-19T07:11:39.558Z,6.95
2023-05-19T07:14:45.127Z,3.58
2023-05-19T07:17:50.068Z,5.43
2023-05-19T07:20:54.097Z,5.45
2023-05-19T07:23:58.213Z,3.30
2023-05-19T07:27:04.392Z,3.90
2023-05-19T07:30:11.246Z,6.10
2023-05-19T07:33:15.188Z,4.77
2023-05-19T07:36:19.367Z,4.88
2023-05-19T07:39:25.266Z,4.35
2023-05-19T07:42:29.504Z,4.68
2023-05-19T07:45:34.625Z,3.90
2023-05-19T07:48:38.841Z,4.97
2023-05-19T07:51:42.889Z,3.85
2023-05-19T07:54:47.551Z,4.90
2023-05-19T07:57:51.262Z,5.63
2023-05-19T08:00:58.811Z,7.65
2023-05-19T08:04:02.594Z,6.00
2023-05-19T08:07:06.661Z,3.72
2023-05-19T08:10:10.794Z,7.30
2023-05-19T08:13:14.761Z,4.50
2023-05-19T08:16:19.884Z,4.20
2023-05-19T08:19:23.920Z,4.93
2023-05-19T08:22:28.170Z,4.07
2023-05-19T08:25:32.226Z,5.70
2023-05-19T08:28:36.197Z,6.15
2023-05-19T08:31:41.963Z,4.75
2023-05-19T08:34:45.633Z,4.13
2023-05-19T08:37:49.875Z,3.63
2023-05-19T08:40:53.794Z,6.68
2023-05-19T08:43:57.789Z,3.15
2023-05-19T08:47:08.060Z,4.57
2023-05-19T08:50:17.105Z,3.75
2023-05-19T08:56:35.711Z,4.43
2023-05-19T08:59:40.790Z,4.25
2023-05-19T09:02:59.697Z,7.90
2023-05-19T09:06:10.443Z,5.70
2023-05-19T09:09:15.550Z,7.82
2023-05-19T09:12:19.236Z,2.88
2023-05-19T09:15:29.199Z,3.10
2023-05-19T09:18:34.152Z,3.97
2023-05-19T09:21:38.672Z,4.68
2023-05-19T09:24:43.178Z,4.18
2023-05-19T09:27:48.750Z,7.50
2023-05-19T09:31:04.521Z,3.08
2023-05-19T09:34:15.662Z,4.03
2023-05-19T09:37:19.351Z,6.37
2023-05-19T09:40:23.467Z,4.20
2023-05-19T09:43:30.062Z,5.00
2023-05-19T09:46:35.948Z,3.30
2023-05-19T09:49:48.503Z,3.78
2023-05-19T09:52:54.088Z,5.43
2023-05-19T09:55:59.225Z,4.22
2023-05-19T09:59:05.102Z,5.43
2023-05-19T10:02:18.715Z,3.75
2023-05-19T10:05:25.251Z,7.10
2023-05-19T10:08:31.861Z,3.70
2023-05-19T10:11:36.240Z,4.18
2023-05-19T10:14:41.685Z,5.05
2023-05-19T10:17:46.663Z,4.05
2023-05-19T10:20:53.852Z,4.57
2023-05-19T10:23:57.916Z,4.38
2023-05-19T10:27:09.812Z,5.00
2023-05-19T10:30:19.574Z,3.67
2023-05-19T10:33:39.914Z,4.00
2023-05-19T10:36:57.168Z,4.75
2023-05-19T10:40:02.058Z,6.17
2023-05-19T10:43:21.189Z,5.18
2023-05-19T10:46:26.910Z,4.25
2023-05-19T10:49:37.435Z,8.07
2023-05-19T10:52:42.388Z,4.75
2023-05-19T10:55:48.744Z,5.47
2023-05-19T10:58:52.997Z,5.30
2023-05-19T11:01:56.957Z,6.40
2023-05-19T11:05:10.798Z,6.82
2023-05-19T11:08:17.881Z,6.07
2023-05-19T11:11:23.396Z,4.07
2023-05-19T11:14:29.087Z,4.32
2023-05-19T11:17:34.466Z,5.25
2023-05-19T11:20:40.761Z,5.82
2023-05-19T11:23:45.685Z,5.68
2023-05-19T11:26:49.658Z,4.75
2023-05-19T11:29:54.367Z,5.32
2023-05-19T11:32:58.920Z,4.53
2023-05-19T11:36:02.508Z,5.85
2023-05-19T11:39:11.234Z,9.85
2023-05-19T11:42:15.013Z,8.13
2023-05-19T11:45:19.599Z,6.07
2023-05-19T11:48:23.853Z,5.70
2023-05-19T11:51:28.032Z,6.50
2023-05-19T11:54:36.551Z,5.70
2023-05-19T11:57:44.703Z,7.15
2023-05-19T12:00:52.563Z,5.97
2023-05-19T12:03:56.872Z,7.23
2023-05-19T12:07:01.128Z,6.97
2023-05-19T12:13:22.697Z,5.57
2023-05-19T12:16:35.374Z,5.20
2023-05-19T12:19:39.275Z,5.60
2023-05-19T12:22:44.107Z,9.00
2023-05-19T12:25:48.334Z,5.60
2023-05-19T12:28:53.846Z,7.73
2023-05-19T12:31:57.808Z,6.30
2023-05-19T12:35:05.896Z,7.28
2023-05-19T12:38:09.510Z,8.40
2023-05-19T12:41:14.608Z,6.32
2023-05-19T12:44:19.577Z,7.38
2023-05-19T12:47:23.886Z,6.53
2023-05-19T12:50:32.848Z,9.70
2023-05-19T12:53:38.237Z,6.85
2023-05-19T12:56:51.806Z,7.80
2023-05-19T13:00:02.124Z,5.80
2023-05-19T13:03:08.644Z,8.25
2023-05-19T13:06:13.144Z,5.95
2023-05-19T13:09:17.348Z,7.45
2023-05-19T13:12:21.279Z,6.80
2023-05-19T13:15:29.401Z,7.15
2023-05-19T13:18:34.868Z,6.25
2023-05-19T13:21:38.801Z,5.20
2023-05-19T13:24:42.678Z,6.18
2023-05-19T13:27:48.989Z,5.80
2023-05-19T13:30:55.196Z,7.80
2023-05-19T13:33:59.034Z,6.20
2023-05-19T13:37:03.027Z,7.00
2023-05-19T13:40:08.285Z,8.23
2023-05-19T13:43:12.455Z,6.80
2023-05-19T13:46:18.227Z,7.85
2023-05-19T13:49:22.981Z,6.18
2023-05-19T13:52:29.095Z,6.07
2023-05-19T13:55:34.571Z,11.20
2023-05-19T13:58:38.157Z,5.93
2023-05-19T14:01:43.795Z,7.03
2023-05-19T14:04:48.538Z,6.22
2023-05-19T14:07:52.400Z,7.88
2023-05-19T14:10:57.095Z,7.20
2023-05-19T14:14:03.382Z,6.63
2023-05-19T14:17:08.707Z,8.55
2023-05-19T14:20:14.039Z,7.38
2023-05-19T14:23:19.969Z,7.77
2023-05-19T14:26:23.977Z,7.82
2023-05-19T14:29:31.057Z,5.18
2023-05-19T14:32:36.315Z,7.27
2023-05-19T14:35:40.166Z,7.40
2023-05-19T14:38:44.326Z,6.45
2023-05-19T14:41:49.422Z,9.30
2023-05-19T14:44:53.431Z,7.65
2023-05-19T14:47:58.392Z,9.18
2023-05-19T14:51:02.796Z,8.57
2023-05-19T14:54:07.132Z,7.63
2023-05-19T14:57:11.150Z,8.57
2023-05-19T15:00:15.829Z,8.43
2023-05-19T15:03:23.141Z,8.93
2023-05-19T15:06:26.947Z,7.43
2023-05-19T15:09:31.031Z,8.00
2023-05-19T15:12:34.686Z,8.45
2023-05-19T15:15:38.634Z,7.75
2023-05-19T15:18:43.741Z,8.90
2023-05-19T15:21:49.911Z,7.30
2023-05-19T15:24:53.472Z,7.90
2023-05-19T15:27:57.396Z,7.15
2023-05-19T15:31:01.050Z,7.38
2023-05-19T15:34:06.320Z,9.10
2023-05-19T15:37:09.963Z,7.72
2023-05-19T15:40:14.635Z,7.95
2023-05-19T15:43:18.464Z,9.25
2023-05-19T15:46:22.771Z,9.20
2023-05-19T15:49:27.728Z,10.38
2023-05-19T15:52:31.885Z,8.77
2023-05-19T15:55:35.377Z,9.67
2023-05-19T15:58:39.252Z,9.07
2023-05-19T16:01:42.948Z,10.00
2023-05-19T16:04:48.124Z,9.57
2023-05-19T16:07:51.659Z,9.65
2023-05-19T16:10:56.003Z,12.30
2023-05-19T16:13:59.820Z,12.48
2023-05-19T16:17:03.678Z,7.72
2023-05-19T16:20:11.040Z,10.60
2023-05-19T16:23:14.919Z,8.27
2023-05-19T16:26:18.575Z,8.27
2023-05-19T16:29:22.379Z,8.40
2023-05-19T16:32:26.340Z,10.90
2023-05-19T16:35:32.245Z,8.90
2023-05-19T16:38:36.059Z,10.90
2023-05-19T16:41:39.992Z,11.15
2023-05-19T16:44:43.722Z,10.20
2023-05-19T16:47:48.924Z,9.52
2023-05-19T16:50:53.874Z,12.27
2023-05-19T16:53:58.042Z,8.55
2023-05-19T16:57:01.852Z,9.50
2023-05-19T17:00:07.196Z,10.02
2023-05-19T17:03:11.680Z,9.60
2023-05-19T17:06:17.347Z,11.63
2023-05-19T17:09:25.189Z,9.75
2023-05-19T17:12:29.357Z,8.90
2023-05-19T17:15:34.967Z,10.15
2023-05-19T17:18:38.985Z,11.30
2023-05-19T17:21:44.168Z,9.35
2023-05-19T17:24:48.306Z,9.57
2023-05-19T17:27:52.421Z,9.07
2023-05-19T17:30:56.245Z,10.30
2023-05-19T17:34:00.059Z,9.80
2023-05-19T17:37:05.960Z,10.03
2023-05-19T17:40:11.200Z,11.02
2023-05-19T17:43:15.059Z,10.27
2023-05-19T17:46:18.607Z,11.35
2023-05-19T17:49:23.072Z,11.85
2023-05-19T17:52:29.101Z,13.82
2023-05-19T17:55:34.178Z,11.00
2023-05-19T17:58:38.732Z,12.50
2023-05-19T18:01:43.242Z,11.80
2023-05-19T18:04:47.647Z,9.85
2023-05-19T18:07:55.651Z,9.50
2023-05-19T18:11:00.024Z,9.73
2023-05-19T18:14:04.023Z,14.05
2023-05-19T18:17:07.662Z,10.73
2023-05-19T18:20:13.649Z,10.45
2023-05-19T18:23:20.362Z,11.75
2023-05-19T18:26:24.520Z,11.93
2023-05-19T18:29:28.325Z,10.00
2023-05-19T18:32:32.244Z,10.43
2023-05-19T18:35:38.415Z,12.75
2023-05-19T18:38:44.067Z,10.27
2023-05-19T18:41:47.963Z,13.48
2023-05-19T18:44:51.936Z,9.75
2023-05-19T18:47:58.692Z,9.63
2023-05-19T18:51:03.866Z,11.20
2023-05-19T18:57:44.519Z,9.90
2023-05-19T19:00:48.889Z,12.73
2023-05-19T19:03:53.070Z,11.15
2023-05-19T19:06:57.022Z,12.73
2023-05-19T19:10:02.425Z,10.80
2023-05-19T19:13:06.783Z,10.73
2023-05-19T19:16:10.748Z,12.10
2023-05-19T19:19:14.758Z,11.93
2023-05-19T19:22:18.508Z,10.75
2023-05-19T19:25:23.884Z,11.75
2023-05-19T19:28:28.263Z,11.07
2023-05-19T19:31:33.389Z,10.30
2023-05-19T19:34:37.323Z,9.27
2023-05-19T19:37:41.478Z,8.18
2023-05-19T19:40:46.772Z,9.23
2023-05-19T19:43:51.027Z,7.03
2023-05-19T19:46:55.087Z,6.93
2023-05-19T19:49:59.187Z,9.25
2023-05-19T19:53:03.529Z,9.20
2023-05-19T19:56:09.044Z,7.60
2023-05-19T19:59:13.252Z,7.45
2023-05-19T20:02:17.635Z,10.17
2023-05-19T20:05:21.637Z,8.68
2023-05-19T20:08:25.846Z,10.48
2023-05-19T20:11:31.581Z,7.73
2023-05-19T20:14:35.488Z,9.85
2023-05-19T20:17:39.127Z,9.68
2023-05-19T20:20:44.136Z,9.48
2023-05-19T20:23:48.260Z,11.68
2023-05-19T20:26:53.486Z,10.80
2023-05-19T20:29:57.225Z,10.52
2023-05-19T20:33:01.433Z,8.47
2023-05-19T20:36:07.232Z,12.50
2023-05-19T20:39:11.673Z,10.18
2023-05-19T20:42:16.718Z,9.23
2023-05-19T20:45:21.278Z,12.80
2023-05-19T20:48:27.140Z,9.93
2023-05-19T20:51:34.784Z,12.05
2023-05-19T20:54:42.127Z,12.65
2023-05-19T20:57:50.188Z,12.82
2023-05-19T21:00:57.531Z,12.90
2023-05-19T21:04:06.868Z,13.27
2023-05-19T21:07:11.292Z,13.32
2023-05-19T21:10:15.418Z,13.23
2023-05-19T21:13:20.455Z,14.67
2023-05-19T21:16:24.895Z,13.15
2023-05-19T21:19:28.624Z,13.23
2023-05-19T21:22:32.499Z,15.80
2023-05-19T21:25:36.132Z,14.45
2023-05-19T21:28:41.651Z,12.57
2023-05-19T21:31:45.546Z,14.88
2023-05-19T21:34:49.806Z,14.40
2023-05-19T21:37:53.891Z,15.07
2023-05-19T21:40:57.940Z,18.48
2023-05-19T21:44:03.531Z,15.97
2023-05-19T21:47:07.552Z,13.40
2023-05-19T21:50:15.593Z,13.80
2023-05-19T21:53:19.568Z,15.68
2023-05-19T21:56:23.754Z,15.35
2023-05-19T21:59:29.313Z,16.77
2023-05-19T22:02:32.886Z,18.17
2023-05-19T22:05:38.328Z,18.87
2023-05-19T22:08:42.076Z,13.50
2023-05-19T22:11:46.432Z,16.42
2023-05-19T22:14:51.448Z,17.20
2023-05-19T22:17:55.505Z,16.00
2023-05-19T22:20:59.120Z,13.88
2023-05-19T22:24:03.113Z,15.25
2023-05-19T22:27:09.749Z,15.75
2023-05-19T22:30:15.733Z,15.75
2023-05-19T22:33:19.451Z,14.98
2023-05-19T22:36:23.529Z,17.23
2023-05-19T22:39:27.283Z,16.02
2023-05-19T22:42:31.265Z,15.48
2023-05-19T22:45:37.489Z,13.83
2023-05-19T22:48:41.984Z,13.93
2023-05-19T22:51:45.848Z,12.93
2023-05-19T22:54:50.010Z,13.88
2023-05-19T22:57:53.684Z,12.35
2023-05-19T23:00:59.170Z,14.13
2023-05-19T23:04:02.761Z,13.13
2023-05-19T23:07:06.924Z,14.50
2023-05-19T23:10:11.398Z,13.10
2023-05-19T23:13:17.618Z,13.27
2023-05-19T23:16:26.576Z,9.83
2023-05-19T23:19:33.259Z,10.25
2023-05-19T23:22:37.021Z,11.07
2023-05-19T23:25:40.909Z,10.65
2023-05-19T23:28:45.209Z,11.50
2023-05-19T23:31:50.721Z,10.65
2023-05-19T23:34:54.455Z,11.50
2023-05-19T23:37:58.392Z,13.20
2023-05-19T23:41:02.168Z,11.00
2023-05-19T23:44:06.443Z,10.50
2023-05-19T23:47:11.414Z,12.03
2023-05-19T23:50:15.675Z,12.30
2023-05-19T23:53:19.887Z,14.73
2023-05-19T23:56:23.964Z,12.18
2023-05-19T23:59:27.719Z,10.55
